Time;durP1;ratioP1;P1;durP2;ratioP2;P2;SDS_P1;SDS_P2;PMS_P1;PMS_P2;Temp;Humidity;BMP_temperature;BMP_pressure;BME280_temperature;BME280_humidity;BME280_pressure;Samples;Min_cycle;Max_cycle;Signal;HPM_P1;HPM_P2
2021/03/23 00:03:12;;;;;;;50.60;29.83;;;;;;;;;;10318528;28;20064;-59
2021/03/23 00:08:23;;;;;;;22.95;17.88;;;;;;;;;;10319805;28;20076;-59
2021/03/23 00:13:21;;;;;;;34.80;24.10;;;;;;;;;;10318966;28;20079;-59
2021/03/23 00:18:19;;;;;;;31.42;22.92;;;;;;;;;;10318629;28;20040;-59
2021/03/23 00:23:17;;;;;;;27.77;18.30;;;;;;;;;;10318470;28;20045;-59
2021/03/23 00:28:14;;;;;;;42.63;24.75;;;;;;;;;;10318496;28;20056;-59
2021/03/23 00:33:13;;;;;;;31.92;22.27;;;;;;;;;;10318078;28;20114;-62
2021/03/23 00:38:11;;;;;;;26.65;19.48;;;;;;;;;;10317544;28;20051;-61
2021/03/23 00:43:09;;;;;;;24.27;19.85;;;;;;;;;;10317931;28;20072;-62
2021/03/23 00:48:08;;;;;;;20.02;15.48;;;;;;;;;;10316557;28;20049;-62
2021/03/23 00:53:06;;;;;;;22.27;15.25;;;;;;;;;;10317227;28;20084;-59
2021/03/23 00:58:04;;;;;;;16.40;13.82;;;;;;;;;;10317505;28;20076;-62
2021/03/23 01:03:01;;;;;;;16.88;14.27;;;;;;;;;;10317092;28;20611;-60
2021/03/23 01:07:59;;;;;;;17.95;14.57;;;;;;;;;;10316808;28;20048;-60
2021/03/23 01:12:58;;;;;;;16.65;13.77;;;;;;;;;;10316712;28;20087;-60
2021/03/23 01:17:55;;;;;;;13.82;12.40;;;;;;;;;;10316675;28;20041;-60
2021/03/23 01:22:53;;;;;;;12.50;11.13;;;;;;;;;;10316863;28;20414;-59
2021/03/23 01:27:50;;;;;;;14.38;12.15;;;;;;;;;;10316112;28;20076;-60
2021/03/23 01:32:49;;;;;;;13.55;12.02;;;;;;;;;;10316192;28;20084;-60
2021/03/23 01:37:46;;;;;;;16.90;13.68;;;;;;;;;;10316656;28;20079;-61
2021/03/23 01:42:45;;;;;;;156.32;83.45;;;;;;;;;;10316783;28;20048;-60
2021/03/23 01:47:42;;;;;;;36.47;25.95;;;;;;;;;;10316077;28;20079;-60
2021/03/23 01:52:41;;;;;;;20.15;15.07;;;;;;;;;;10315915;28;20079;-60
2021/03/23 01:57:39;;;;;;;15.32;12.63;;;;;;;;;;10317019;28;20052;-60
2021/03/23 02:02:36;;;;;;;28.30;19.95;;;;;;;;;;10315813;28;20068;-61
2021/03/23 02:07:41;;;;;;;24.27;18.42;;;;;;;;;;10315814;28;20076;-61
2021/03/23 02:12:38;;;;;;;31.60;25.10;;;;;;;;;;10315476;28;20119;-60
2021/03/23 02:17:37;;;;;;;19.95;16.58;;;;;;;;;;10316252;28;20048;-60
2021/03/23 02:22:36;;;;;;;14.82;13.32;;;;;;;;;;10315327;28;20051;-60
2021/03/23 02:27:34;;;;;;;17.98;15.18;;;;;;;;;;10315999;28;20048;-61
2021/03/23 02:32:31;;;;;;;19.95;15.20;;;;;;;;;;10315343;28;20092;-60
2021/03/23 02:37:28;;;;;;;32.50;19.88;;;;;;;;;;10315898;28;20056;-62
2021/03/23 02:42:27;;;;;;;47.25;24.20;;;;;;;;;;10315072;28;20047;-61
2021/03/23 02:47:24;;;;;;;22.27;15.02;;;;;;;;;;10315608;28;20084;-62
2021/03/23 02:52:22;;;;;;;96.13;37.83;;;;;;;;;;10318946;28;20086;-62
2021/03/23 02:57:19;;;;;;;34.05;24.45;;;;;;;;;;10321818;28;20037;-62
2021/03/23 03:02:17;;;;;;;25.13;21.98;;;;;;;;;;10321660;28;20048;-62
2021/03/23 03:07:14;;;;;;;45.08;24.33;;;;;;;;;;10321454;28;20106;-62
2021/03/23 03:12:12;;;;;;;33.78;25.40;;;;;;;;;;10320546;28;20048;-62
2021/03/23 03:17:09;;;;;;;28.63;24.45;;;;;;;;;;10320778;28;20080;-61
2021/03/23 03:22:08;;;;;;;30.27;23.20;;;;;;;;;;10319710;28;20724;-62
2021/03/23 03:27:06;;;;;;;32.83;26.30;;;;;;;;;;10320979;28;20091;-61
2021/03/23 03:32:03;;;;;;;38.67;30.70;;;;;;;;;;10320506;28;20091;-61
2021/03/23 03:37:01;;;;;;;106.03;60.38;;;;;;;;;;10320388;28;20049;-61
2021/03/23 03:41:59;;;;;;;55.42;33.15;;;;;;;;;;10320238;28;20084;-62
2021/03/23 03:46:56;;;;;;;39.70;27.23;;;;;;;;;;10319914;28;20044;-61
2021/03/23 03:51:53;;;;;;;29.52;23.73;;;;;;;;;;10319715;28;20076;-61
2021/03/23 03:56:51;;;;;;;42.05;28.65;;;;;;;;;;10319529;28;20037;-62
2021/03/23 04:01:49;;;;;;;22.23;17.33;;;;;;;;;;10317934;28;20461;-61
2021/03/23 04:06:46;;;;;;;30.80;21.23;;;;;;;;;;10318096;28;20071;-61
2021/03/23 04:11:44;;;;;;;39.58;24.48;;;;;;;;;;10320111;28;20079;-62
2021/03/23 04:16:41;;;;;;;23.30;16.95;;;;;;;;;;10319695;28;20068;-62
2021/03/23 04:21:39;;;;;;;24.45;17.17;;;;;;;;;;10319666;28;20052;-61
2021/03/23 04:26:37;;;;;;;40.90;28.73;;;;;;;;;;10318358;28;20076;-62
2021/03/23 04:31:36;;;;;;;30.00;23.55;;;;;;;;;;10318613;28;20088;-62
2021/03/23 04:36:34;;;;;;;29.83;23.38;;;;;;;;;;10319069;28;20045;-61
2021/03/23 04:41:32;;;;;;;83.05;44.63;;;;;;;;;;10318934;28;20063;-61
2021/03/23 04:46:29;;;;;;;58.40;32.50;;;;;;;;;;10318556;28;20076;-61
2021/03/23 04:51:28;;;;;;;43.60;27.10;;;;;;;;;;10318159;28;20091;-61
2021/03/23 04:56:27;;;;;;;36.05;22.60;;;;;;;;;;10317710;28;20076;-61
2021/03/23 05:01:25;;;;;;;39.13;24.23;;;;;;;;;;10316554;28;20048;-61
2021/03/23 05:06:24;;;;;;;50.20;29.65;;;;;;;;;;10317010;28;20045;-62
2021/03/23 05:11:23;;;;;;;40.03;26.10;;;;;;;;;;10317452;28;20087;-62
2021/03/23 05:16:21;;;;;;;32.97;22.17;;;;;;;;;;10316857;28;20079;-61
2021/03/23 05:21:20;;;;;;;19.15;16.27;;;;;;;;;;10317706;28;20044;-61
2021/03/23 05:26:18;;;;;;;23.42;16.98;;;;;;;;;;10317669;28;20485;-62
2021/03/23 05:31:16;;;;;;;28.60;19.20;;;;;;;;;;10316674;28;20084;-62
2021/03/23 05:36:13;;;;;;;21.27;18.00;;;;;;;;;;10317510;28;20076;-62
2021/03/23 05:41:16;;;;;;;22.25;15.90;;;;;;;;;;10316839;28;20118;-62
2021/03/23 05:46:18;;;;;;;51.17;30.33;;;;;;;;;;10317290;28;20055;-62
2021/03/23 05:51:22;;;;;;;21.73;16.42;;;;;;;;;;10317178;28;20091;-62
2021/03/23 05:56:21;;;;;;;16.92;14.07;;;;;;;;;;10317055;28;20076;-61
2021/03/23 06:01:20;;;;;;;19.45;13.93;;;;;;;;;;10316979;28;20072;-61
2021/03/23 06:06:23;;;;;;;25.55;14.77;;;;;;;;;;10316832;28;20045;-62
2021/03/23 06:11:36;;;;;;;39.33;22.48;;;;;;;;;;10316420;28;20079;-62
2021/03/23 06:16:38;;;;;;;45.13;24.83;;;;;;;;;;10316379;28;20400;-61
2021/03/23 06:21:40;;;;;;;21.73;13.65;;;;;;;;;;10316687;28;20056;-61
2021/03/23 06:26:41;;;;;;;38.80;20.92;;;;;;;;;;10320548;28;20048;-61
2021/03/23 06:31:49;;;;;;;46.42;24.23;;;;;;;;;;10323112;28;20080;-62
2021/03/23 06:36:49;;;;;;;18.40;11.88;;;;;;;;;;10323565;28;20072;-63
2021/03/23 06:41:52;;;;;;;20.33;12.30;;;;;;;;;;10323456;28;20532;-62
2021/03/23 06:46:50;;;;;;;24.42;14.88;;;;;;;;;;10322688;28;20056;-61
2021/03/23 06:52:06;;;;;;;13.70;8.85;;;;;;;;;;10322126;28;20087;-63
2021/03/23 06:57:06;;;;;;;10.23;7.35;;;;;;;;;;10321898;28;20515;-62
2021/03/23 07:02:03;;;;;;;21.20;13.15;;;;;;;;;;10320788;28;20044;-63
2021/03/23 07:07:06;;;;;;;25.38;16.55;;;;;;;;;;10322225;28;20076;-63
2021/03/23 07:12:05;;;;;;;30.92;20.05;;;;;;;;;;10321449;28;20080;-61
2021/03/23 07:17:05;;;;;;;13.30;9.55;;;;;;;;;;10321619;28;20088;-61
2021/03/23 07:22:05;;;;;;;14.02;10.35;;;;;;;;;;10320998;28;20080;-62
2021/03/23 07:27:05;;;;;;;14.35;8.82;;;;;;;;;;10320792;28;20087;-62
2021/03/23 07:32:06;;;;;;;19.05;11.65;;;;;;;;;;10320767;28;20095;-62
2021/03/23 07:37:05;;;;;;;16.92;11.73;;;;;;;;;;10320052;28;20490;-60
2021/03/23 07:42:05;;;;;;;12.63;6.60;;;;;;;;;;10320237;28;20078;-61
2021/03/23 07:47:15;;;;;;;9.27;7.63;;;;;;;;;;10320594;28;20061;-62
2021/03/23 07:52:17;;;;;;;25.45;16.65;;;;;;;;;;10320601;28;20717;-63
2021/03/23 07:57:26;;;;;;;22.08;11.32;;;;;;;;;;10320081;28;20409;-61
2021/03/23 08:02:31;;;;;;;18.05;10.23;;;;;;;;;;10319388;28;20049;-61
2021/03/23 08:07:32;;;;;;;41.10;23.52;;;;;;;;;;10319260;28;20410;-61
2021/03/23 08:12:42;;;;;;;11.82;7.18;;;;;;;;;;10319246;28;20485;-61
2021/03/23 08:17:55;;;;;;;15.73;7.80;;;;;;;;;;10319019;28;20072;-62
2021/03/23 08:23:00;;;;;;;21.10;10.00;;;;;;;;;;10318613;28;20470;-62
2021/03/23 08:28:10;;;;;;;13.98;8.55;;;;;;;;;;10319217;28;20422;-62
2021/03/23 08:33:15;;;;;;;28.70;16.75;;;;;;;;;;10319021;28;20461;-61
2021/03/23 08:38:18;;;;;;;16.73;10.25;;;;;;;;;;10318150;28;20045;-60
2021/03/23 08:43:17;;;;;;;16.80;10.50;;;;;;;;;;10318087;28;20536;-60
2021/03/23 08:48:29;;;;;;;10.75;7.18;;;;;;;;;;10316850;28;20422;-61
2021/03/23 08:53:40;;;;;;;20.30;11.98;;;;;;;;;;10318115;28;20474;-61
2021/03/23 08:58:45;;;;;;;17.58;13.73;;;;;;;;;;10317550;28;20071;-61
2021/03/23 09:03:47;;;;;;;16.77;11.23;;;;;;;;;;10315811;28;20076;-61
2021/03/23 09:08:46;;;;;;;11.18;8.52;;;;;;;;;;10317053;28;20048;-60
2021/03/23 09:14:14;;;;;;;28.38;13.63;;;;;;;;;;10317306;28;20060;-61
2021/03/23 09:19:12;;;;;;;17.83;10.32;;;;;;;;;;10317457;28;20041;-62
2021/03/23 09:24:23;;;;;;;32.33;18.52;;;;;;;;;;10316845;28;20107;-61
2021/03/23 09:29:35;;;;;;;22.98;15.35;;;;;;;;;;10315705;28;20061;-60
2021/03/23 09:35:06;;;;;;;9.05;6.05;;;;;;;;;;10317089;28;20079;-61
2021/03/23 09:40:18;;;;;;;16.88;11.77;;;;;;;;;;10229976;28;20523;-60
2021/03/23 09:45:26;;;;;;;12.55;9.98;;;;;;;;;;10298266;28;20430;-60
2021/03/23 09:50:26;;;;;;;19.55;13.25;;;;;;;;;;10317060;28;20520;-61
2021/03/23 09:55:23;;;;;;;34.28;22.88;;;;;;;;;;10315032;28;20048;-61
2021/03/23 10:00:23;;;;;;;30.92;19.67;;;;;;;;;;10319351;28;20049;-60
2021/03/23 10:05:24;;;;;;;23.50;14.05;;;;;;;;;;10324876;28;20051;-60
2021/03/23 10:10:24;;;;;;;22.95;13.32;;;;;;;;;;10324897;28;20486;-62
2021/03/23 10:15:23;;;;;;;21.63;15.27;;;;;;;;;;10324451;28;20048;-61
2021/03/23 10:20:22;;;;;;;18.73;12.95;;;;;;;;;;10324166;28;20119;-62
2021/03/23 10:25:20;;;;;;;13.43;8.18;;;;;;;;;;10323961;28;20193;-62
2021/03/23 10:30:19;;;;;;;20.00;12.50;;;;;;;;;;10323596;28;20526;-61
2021/03/23 10:35:18;;;;;;;17.48;12.25;;;;;;;;;;10323806;28;20110;-61
2021/03/23 10:40:30;;;;;;;16.55;12.07;;;;;;;;;;10323713;28;20045;-61
2021/03/23 10:45:31;;;;;;;19.08;10.55;;;;;;;;;;10323598;28;20052;-62
2021/03/23 10:50:29;;;;;;;17.30;12.52;;;;;;;;;;10322920;28;20075;-62
2021/03/23 10:55:31;;;;;;;18.08;12.93;;;;;;;;;;10322071;28;20068;-62
2021/03/23 11:00:31;;;;;;;9.85;6.70;;;;;;;;;;10322614;28;20442;-62
2021/03/23 11:05:41;;;;;;;18.80;10.50;;;;;;;;;;10322315;28;20095;-62
2021/03/23 11:10:39;;;;;;;7.95;6.82;;;;;;;;;;10321178;28;20049;-62
2021/03/23 11:15:40;;;;;;;19.08;11.55;;;;;;;;;;10321918;28;20044;-62
2021/03/23 11:20:39;;;;;;;10.57;7.30;;;;;;;;;;10322261;28;20049;-62
2021/03/23 11:25:36;;;;;;;17.75;10.60;;;;;;;;;;10321868;28;20040;-62
2021/03/23 11:30:33;;;;;;;17.25;13.13;;;;;;;;;;10319912;28;20434;-62
2021/03/23 11:35:31;;;;;;;34.50;18.45;;;;;;;;;;10321269;28;20083;-62
2021/03/23 11:40:28;;;;;;;11.05;7.47;;;;;;;;;;10321291;28;20410;-63
2021/03/23 11:45:28;;;;;;;23.55;14.02;;;;;;;;;;10320240;28;20072;-62
2021/03/23 11:50:26;;;;;;;16.50;11.38;;;;;;;;;;10321128;28;20051;-62
2021/03/23 11:55:25;;;;;;;14.35;12.82;;;;;;;;;;10320785;28;20087;-62
2021/03/23 12:00:26;;;;;;;40.40;22.98;;;;;;;;;;10319956;28;20045;-62
2021/03/23 12:05:24;;;;;;;28.10;15.23;;;;;;;;;;10320527;28;20084;-62
2021/03/23 12:10:23;;;;;;;33.72;16.85;;;;;;;;;;10319867;28;20414;-62
2021/03/23 12:15:23;;;;;;;42.25;23.67;;;;;;;;;;10318932;28;20076;-61
2021/03/23 12:20:22;;;;;;;19.88;13.32;;;;;;;;;;10319559;28;20051;-62
2021/03/23 12:25:20;;;;;;;37.92;21.77;;;;;;;;;;10319046;28;20041;-62
2021/03/23 12:30:19;;;;;;;22.45;14.77;;;;;;;;;;10318903;28;20399;-62
2021/03/23 12:35:19;;;;;;;20.73;14.05;;;;;;;;;;10318890;28;20462;-63
2021/03/23 12:40:17;;;;;;;47.97;28.00;;;;;;;;;;10318689;28;20041;-61
2021/03/23 12:45:27;;;;;;;31.15;21.75;;;;;;;;;;10318550;28;20091;-61
2021/03/23 12:50:26;;;;;;;37.53;22.15;;;;;;;;;;10317866;28;20133;-61
2021/03/23 12:55:24;;;;;;;36.53;21.88;;;;;;;;;;10318060;28;20068;-61
2021/03/23 13:00:25;;;;;;;62.65;33.13;;;;;;;;;;10317873;28;20087;-60
2021/03/23 13:05:23;;;;;;;36.22;23.70;;;;;;;;;;10317230;28;20044;-62
2021/03/23 13:10:26;;;;;;;43.88;25.90;;;;;;;;;;10317638;28;20045;-62
2021/03/23 13:15:24;;;;;;;27.38;17.33;;;;;;;;;;10317702;28;20103;-62
2021/03/23 13:20:22;;;;;;;40.40;24.52;;;;;;;;;;10317075;28;20037;-62
2021/03/23 13:25:24;;;;;;;115.20;49.05;;;;;;;;;;10316830;28;20082;-61
2021/03/23 13:30:26;;;;;;;73.63;33.53;;;;;;;;;;10316177;28;20106;-61
2021/03/23 13:35:25;;;;;;;124.55;61.90;;;;;;;;;;10316533;28;20510;-61
2021/03/23 13:40:25;;;;;;;50.70;26.98;;;;;;;;;;10317285;28;20052;-61
2021/03/23 13:45:29;;;;;;;25.67;17.60;;;;;;;;;;10317356;28;20040;-61
2021/03/23 13:50:28;;;;;;;39.42;22.42;;;;;;;;;;10316871;28;20048;-61
2021/03/23 13:55:26;;;;;;;79.90;46.65;;;;;;;;;;10315842;28;20076;-62
2021/03/23 14:00:28;;;;;;;95.93;51.88;;;;;;;;;;10316627;28;20134;-62
2021/03/23 14:05:25;;;;;;;33.55;22.05;;;;;;;;;;10316528;28;20059;-62
2021/03/23 14:10:24;;;;;;;59.20;31.77;;;;;;;;;;10315596;28;20047;-62
2021/03/23 14:15:22;;;;;;;55.33;27.27;;;;;;;;;;10316090;28;20076;-62
2021/03/23 14:20:22;;;;;;;51.03;30.98;;;;;;;;;;10316154;28;20052;-62
2021/03/23 14:25:27;;;;;;;51.55;32.67;;;;;;;;;;10315388;28;20059;-61
2021/03/23 14:30:25;;;;;;;28.58;18.52;;;;;;;;;;10315755;28;20526;-61
2021/03/23 14:35:24;;;;;;;87.20;43.67;;;;;;;;;;10315848;28;20552;-61
2021/03/23 14:40:24;;;;;;;34.67;21.83;;;;;;;;;;10315947;28;20047;-61
2021/03/23 14:45:21;;;;;;;37.25;21.95;;;;;;;;;;10316294;28;20037;-61
2021/03/23 14:50:19;;;;;;;103.20;59.50;;;;;;;;;;10323284;28;20095;-61
2021/03/23 14:55:19;;;;;;;83.70;41.47;;;;;;;;;;10323038;28;20084;-61
2021/03/23 15:00:23;;;;;;;132.00;73.57;;;;;;;;;;10321792;28;20049;-61
2021/03/23 15:05:20;;;;;;;111.43;61.40;;;;;;;;;;10321310;28;20418;-61
2021/03/23 15:10:20;;;;;;;117.22;69.72;;;;;;;;;;10322155;28;20083;-61
2021/03/23 15:15:18;;;;;;;67.65;38.20;;;;;;;;;;10321309;28;20071;-61
2021/03/23 15:20:16;;;;;;;38.05;24.45;;;;;;;;;;10322024;28;20599;-61
2021/03/23 15:25:18;;;;;;;69.53;38.90;;;;;;;;;;10321695;28;20045;-62
2021/03/23 15:30:18;;;;;;;224.93;109.40;;;;;;;;;;10320849;28;20070;-61
2021/03/23 15:35:18;;;;;;;61.00;35.90;;;;;;;;;;10321364;28;20087;-61
2021/03/23 15:40:16;;;;;;;79.05;40.45;;;;;;;;;;10321188;28;20414;-61
2021/03/23 15:45:15;;;;;;;42.15;25.75;;;;;;;;;;10320884;28;20041;-62
2021/03/23 15:50:14;;;;;;;83.45;46.40;;;;;;;;;;10320726;28;20075;-61
2021/03/23 15:55:15;;;;;;;209.48;120.28;;;;;;;;;;10320388;28;20509;-61
2021/03/23 16:00:23;;;;;;;167.00;94.10;;;;;;;;;;10320190;28;20509;-62
2021/03/23 16:05:22;;;;;;;178.18;102.25;;;;;;;;;;10321189;28;20079;-62
2021/03/23 16:10:20;;;;;;;235.27;129.15;;;;;;;;;;10328538;28;20087;-60
2021/03/23 16:15:19;;;;;;;55.90;39.60;;;;;;;;;;10326655;28;20084;-60
2021/03/23 16:20:17;;;;;;;135.75;75.20;;;;;;;;;;10339472;28;20055;-60
2021/03/23 16:25:19;;;;;;;208.43;99.40;;;;;;;;;;10319299;28;20095;-62
2021/03/23 16:30:17;;;;;;;67.25;39.65;;;;;;;;;;10330685;28;20502;-61
2021/03/23 16:35:17;;;;;;;67.53;38.28;;;;;;;;;;10326391;28;20651;-61
2021/03/23 16:40:15;;;;;;;72.72;39.25;;;;;;;;;;10330372;28;20084;-61
2021/03/23 16:45:20;;;;;;;45.70;30.27;;;;;;;;;;10341389;28;20083;-60
2021/03/23 16:50:18;;;;;;;69.10;39.38;;;;;;;;;;10336635;28;20044;-61
2021/03/23 16:55:22;;;;;;;135.52;70.40;;;;;;;;;;10359710;28;20079;-60
2021/03/23 17:00:22;;;;;;;42.53;30.73;;;;;;;;;;10356002;28;20075;-61
2021/03/23 17:05:20;;;;;;;48.08;29.90;;;;;;;;;;10325253;28;20480;-62
2021/03/23 17:10:19;;;;;;;30.08;21.95;;;;;;;;;;10316811;28;20044;-62
2021/03/23 17:15:17;;;;;;;70.68;44.67;;;;;;;;;;10316258;28;20052;-62
2021/03/23 17:20:19;;;;;;;64.15;45.83;;;;;;;;;;10317310;28;20500;-62
2021/03/23 17:25:18;;;;;;;41.13;34.55;;;;;;;;;;10317330;28;20047;-62
2021/03/23 17:30:17;;;;;;;69.40;41.95;;;;;;;;;;10316586;28;20057;-62
2021/03/23 17:35:15;;;;;;;32.78;26.42;;;;;;;;;;10317115;28;20091;-63
2021/03/23 17:40:14;;;;;;;53.53;33.45;;;;;;;;;;10317046;28;20080;-61
2021/03/23 17:45:16;;;;;;;59.75;37.22;;;;;;;;;;10316706;28;20044;-63
2021/03/23 17:50:14;;;;;;;27.70;20.65;;;;;;;;;;10317047;28;20081;-62
2021/03/23 17:55:13;;;;;;;26.25;19.55;;;;;;;;;;10316584;28;20079;-61
2021/03/23 18:00:15;;;;;;;37.92;24.42;;;;;;;;;;10316454;28;20063;-62
2021/03/23 18:05:13;;;;;;;20.80;14.88;;;;;;;;;;10316772;28;20052;-63
2021/03/23 18:10:11;;;;;;;18.15;14.05;;;;;;;;;;10315510;28;20083;-62
2021/03/23 18:15:23;;;;;;;20.73;13.40;;;;;;;;;;10315384;28;20072;-63
2021/03/23 18:20:22;;;;;;;20.90;16.33;;;;;;;;;;10316758;28;20040;-63
2021/03/23 18:25:20;;;;;;;52.67;33.42;;;;;;;;;;10323864;28;20048;-62
2021/03/23 18:30:18;;;;;;;29.20;20.77;;;;;;;;;;10322963;28;20084;-63
2021/03/23 18:35:18;;;;;;;29.85;22.27;;;;;;;;;;10323465;28;20510;-64
2021/03/23 18:40:18;;;;;;;28.65;22.80;;;;;;;;;;10322045;28;20087;-64
2021/03/23 18:45:16;;;;;;;26.52;18.60;;;;;;;;;;10322667;28;20060;-63
2021/03/23 18:50:23;;;;;;;153.57;83.18;;;;;;;;;;10323063;28;20474;-62
2021/03/23 18:55:22;;;;;;;59.28;36.40;;;;;;;;;;10322649;28;20072;-63
2021/03/23 19:00:20;;;;;;;31.50;24.20;;;;;;;;;;10322385;28;20049;-63
2021/03/23 19:05:19;;;;;;;34.13;24.85;;;;;;;;;;10322043;28;20048;-63
2021/03/23 19:10:18;;;;;;;35.80;26.02;;;;;;;;;;10321717;28;20524;-63
2021/03/23 19:15:19;;;;;;;48.05;30.17;;;;;;;;;;10322213;28;20079;-63
2021/03/23 19:20:19;;;;;;;35.22;26.75;;;;;;;;;;10322289;28;20056;-62
2021/03/23 19:25:16;;;;;;;57.92;38.80;;;;;;;;;;10321607;28;20045;-63
2021/03/23 19:30:17;;;;;;;32.72;18.02;;;;;;;;;;10321162;28;20083;-63
2021/03/23 19:35:15;;;;;;;16.35;13.85;;;;;;;;;;10320229;28;20099;-62
2021/03/23 19:40:15;;;;;;;21.40;18.02;;;;;;;;;;10320895;28;20071;-63
2021/03/23 19:45:14;;;;;;;14.63;11.10;;;;;;;;;;10320808;28;20075;-63
2021/03/23 19:50:15;;;;;;;20.40;16.08;;;;;;;;;;10320673;28;20384;-62
2021/03/23 19:55:15;;;;;;;14.95;12.68;;;;;;;;;;10320334;28;20158;-63
2021/03/23 20:00:14;;;;;;;21.88;17.48;;;;;;;;;;10319907;28;20076;-63
2021/03/23 20:05:13;;;;;;;12.30;10.45;;;;;;;;;;10320472;28;20056;-63
2021/03/23 20:10:11;;;;;;;9.60;8.43;;;;;;;;;;10320170;28;20056;-64
2021/03/23 20:15:11;;;;;;;17.98;10.77;;;;;;;;;;10319587;28;20079;-63
2021/03/23 20:20:09;;;;;;;14.15;9.75;;;;;;;;;;10319483;28;20048;-64
2021/03/23 20:25:09;;;;;;;13.88;10.57;;;;;;;;;;10319134;28;20080;-64
2021/03/23 20:30:07;;;;;;;21.02;12.85;;;;;;;;;;10318597;28;20099;-64
2021/03/23 20:35:05;;;;;;;28.17;18.40;;;;;;;;;;10318716;28;20083;-63
2021/03/23 20:40:03;;;;;;;19.80;14.35;;;;;;;;;;10318671;28;20080;-64
2021/03/23 20:45:08;;;;;;;33.08;23.52;;;;;;;;;;10318984;28;20477;-64
2021/03/23 20:50:06;;;;;;;20.52;13.82;;;;;;;;;;10318308;28;20083;-63
2021/03/23 20:55:04;;;;;;;17.88;11.68;;;;;;;;;;10318284;28;20080;-63
2021/03/23 21:00:02;;;;;;;30.48;18.00;;;;;;;;;;10318018;28;20041;-63
2021/03/23 21:05:00;;;;;;;35.90;23.73;;;;;;;;;;10316415;28;20056;-63
2021/03/23 21:09:57;;;;;;;36.20;23.60;;;;;;;;;;10317667;28;20052;-62
2021/03/23 21:14:54;;;;;;;32.00;21.27;;;;;;;;;;10317462;28;20084;-63
2021/03/23 21:19:52;;;;;;;12.75;9.90;;;;;;;;;;10316080;28;20052;-62
2021/03/23 21:24:50;;;;;;;126.95;43.83;;;;;;;;;;10315923;28;20137;-61
2021/03/23 21:29:47;;;;;;;44.25;17.92;;;;;;;;;;10312742;28;20090;-62
2021/03/23 21:34:44;;;;;;;39.42;20.08;;;;;;;;;;10312085;28;20076;-62
2021/03/23 21:39:42;;;;;;;32.60;15.07;;;;;;;;;;10312089;28;20041;-63
2021/03/23 21:44:40;;;;;;;38.25;21.90;;;;;;;;;;10315283;28;20096;-62
2021/03/23 21:49:38;;;;;;;15.98;12.43;;;;;;;;;;10316782;28;20048;-62
2021/03/23 21:54:36;;;;;;;26.40;16.15;;;;;;;;;;10316032;28;20075;-62
2021/03/23 21:59:33;;;;;;;14.45;11.70;;;;;;;;;;10323651;28;20063;-62
2021/03/23 22:04:32;;;;;;;24.90;17.98;;;;;;;;;;10324586;28;20124;-63
2021/03/23 22:09:29;;;;;;;18.17;14.27;;;;;;;;;;10324896;28;20044;-62
2021/03/23 22:14:26;;;;;;;15.07;10.25;;;;;;;;;;10324850;28;20080;-63
2021/03/23 22:19:42;;;;;;;15.55;11.00;;;;;;;;;;10324373;28;20478;-63
2021/03/23 22:24:39;;;;;;;107.95;58.33;;;;;;;;;;10323770;28;20045;-62
2021/03/23 22:29:36;;;;;;;60.70;33.72;;;;;;;;;;10323764;28;20063;-62
2021/03/23 22:34:35;;;;;;;15.20;11.90;;;;;;;;;;10323982;28;20080;-63
2021/03/23 22:39:33;;;;;;;18.77;13.43;;;;;;;;;;10323691;28;20055;-62
2021/03/23 22:44:32;;;;;;;18.20;14.00;;;;;;;;;;10323328;28;20048;-62
2021/03/23 22:49:29;;;;;;;15.10;12.10;;;;;;;;;;10322909;28;20044;-62
2021/03/23 22:54:26;;;;;;;13.25;10.38;;;;;;;;;;10322751;28;20049;-62
2021/03/23 22:59:24;;;;;;;14.70;10.57;;;;;;;;;;10322889;28;20409;-62
2021/03/23 23:04:21;;;;;;;17.50;13.57;;;;;;;;;;10322615;28;20051;-62
2021/03/23 23:09:19;;;;;;;10.00;8.85;;;;;;;;;;10321267;28;20041;-62
2021/03/23 23:14:16;;;;;;;12.65;8.13;;;;;;;;;;10322000;28;20076;-62
2021/03/23 23:19:15;;;;;;;7.65;6.88;;;;;;;;;;10321831;28;20044;-62
2021/03/23 23:24:16;;;;;;;7.45;6.55;;;;;;;;;;10321452;28;20513;-62
2021/03/23 23:29:14;;;;;;;9.80;7.10;;;;;;;;;;10321141;28;20087;-62
2021/03/23 23:34:12;;;;;;;6.82;5.72;;;;;;;;;;10321332;28;20065;-62
2021/03/23 23:39:11;;;;;;;8.70;6.97;;;;;;;;;;10321180;28;20498;-63
2021/03/23 23:44:08;;;;;;;10.15;8.07;;;;;;;;;;10320980;28;20083;-62
2021/03/23 23:49:05;;;;;;;8.20;6.97;;;;;;;;;;10320934;28;20075;-62
2021/03/23 23:54:14;;;;;;;5.05;4.65;;;;;;;;;;10319387;28;20048;-63
2021/03/23 23:59:12;;;;;;;6.90;6.20;;;;;;;;;;10320324;28;20040;-63
